Airfield :
LOGIN :

Register | Disclaimer

   EN    FR    IT 

 










Legend :    VFR   Marginal VFR   IFR   Intensive IFR   Very Intensive IFR
Visi :
Ceiling :
>= 8 km
>= 3000ft
5 to 8 km
1000 to 3000 ft
1500m to 5 km
500 to 1000 ft
800 to 1500m
200 to 500 ft
< 800m
< 200 ft
Symbols :   Thunderstorms  Fog  Heavy snow  Heavy precipitations  Wind > 20 kt
SIGMETs :     Misc.  Thunderstorms  Icing  Turbulence  Mountain Waves  Volcanic Ashes






- Airport Elevation : 311 ft
- IATA code : SVL


EFSA - Savonlinna

CURRENT METAR :
  • 302020Z AUTO 06009KT 9999 -SN FEW012 OVC034 M07/M09 Q1006

EXPIRED METARs :
  • 301950Z AUTO 05010KT 9999 BKN012 BKN033 M07/M09 Q1006
  • 301920Z AUTO 06010KT 9999 OVC011 M07/M09 Q1006
  • 301850Z AUTO 06010KT 9999 OVC011 M07/M09 Q1006
  • 301820Z AUTO 06010KT 9999 OVC011 M07/M09 Q1006
  • 301750Z AUTO 06010KT 9999 BKN011 M06/M09 Q1007
  • 301720Z AUTO 06010KT 9999 BKN010 M06/M08 Q1007
  • 301650Z AUTO 05012KT 9999 BKN010 M06/M08 Q1007
  • 301620Z AUTO 05012KT 9999 BKN010 M06/M08 Q1007
  • 301550Z 06012KT 9999 SCT010 M06/M08 Q1007

TAF COR TAF EFSA
Valid from the 30 at 18:00 until the 01 at 03:00 UTC


301741Z 3018/0103 06010KT 9999 FEW013
TEMPO 3018/0103 6000 -SN BKN012



MET'MAP, your aeronautical weather chart ! - Copyright ORBIFLY December 2007 - Disclaimer

ORBIFLY MET'MAP TEAM :

Programming & Development : Alexandra Zaïnal
Original concept : Baudouin d'Aumeries
Technical & hardware support : Manuel Goepfert
Assistance : Marc-Olivier Méhu




SOURCES & CREDITS :

   NOAA